KMSP/MSP METAR and TAF weather

Enter ICAO airport designator
Station Type Date Time Source
KMSP METAR 2020/09/21 09:53 UTC NOAA

KMSP 210953Z 15007KT 10SM CLR 15/08 A3013 RMK AO2 SLP203 T01500083


Station Type Date Time Source
KMSP Decoded METAR 2020/09/21 09:53 UTC NOAA

MINNEAPOLIS-ST PAUL INTERNATIONAL , MN, United States (KMSP) 44-52N 93-13W 265M
Sep 21, 2020 - 05:53 AM EDT / 2020.09.21 0953 UTC
Wind: from the SSE (150 degrees) at 8 MPH (7 KT):0
Visibility: 10 mile(s):0
Sky conditions: clear
Temperature: 59.0 F (15.0 C)
Dew Point: 46.9 F (8.3 C)
Relative Humidity: 64%
Pressure (altimeter): 30.13 in. Hg (1020 hPa)
ob: KMSP 210953Z 15007KT 10SM CLR 15/08 A3013 RMK AO2 SLP203 T01500083
cycle: 10

Station Type Date Time Source
KMSP TAF 2020/09/21 09:03 UTC NOAA

TAF
AMD KMSP 210901Z 2109/2212 18010KT P6SM SKC WS020/19045KT
FM211400 19013G22KT P6SM SCT100
FM220000 20006KT P6SM SKC

Example: see airport list